sensor_id;sensor_type;location;lat;lon;timestamp;P1;durP1;ratioP1;P2;durP2;ratioP2
23754;SDS011;12057;52.042;6.830;2023-03-02T00:04:11;29.50;;;10.70;;
23754;SDS011;12057;52.042;6.830;2023-03-02T00:09:14;37.22;;;11.15;;
23754;SDS011;12057;52.042;6.830;2023-03-02T00:14:15;33.45;;;11.88;;
23754;SDS011;12057;52.042;6.830;2023-03-02T00:19:16;36.78;;;11.85;;
23754;SDS011;12057;52.042;6.830;2023-03-02T00:24:17;34.97;;;12.68;;
23754;SDS011;12057;52.042;6.830;2023-03-02T00:29:18;42.70;;;15.23;;
23754;SDS011;12057;52.042;6.830;2023-03-02T00:34:19;43.80;;;14.65;;
23754;SDS011;12057;52.042;6.830;2023-03-02T00:39:21;37.67;;;14.57;;
23754;SDS011;12057;52.042;6.830;2023-03-02T00:49:23;48.57;;;15.87;;
23754;SDS011;12057;52.042;6.830;2023-03-02T00:59:25;50.25;;;18.85;;
23754;SDS011;12057;52.042;6.830;2023-03-02T01:09:28;59.90;;;19.83;;
23754;SDS011;12057;52.042;6.830;2023-03-02T01:19:31;61.08;;;20.30;;
23754;SDS011;12057;52.042;6.830;2023-03-02T01:29:33;59.50;;;21.02;;
23754;SDS011;12057;52.042;6.830;2023-03-02T01:39:35;78.82;;;24.20;;
23754;SDS011;12057;52.042;6.830;2023-03-02T01:49:45;79.60;;;24.58;;
23754;SDS011;12057;52.042;6.830;2023-03-02T01:54:48;78.65;;;25.95;;
23754;SDS011;12057;52.042;6.830;2023-03-02T01:59:51;90.57;;;26.88;;
23754;SDS011;12057;52.042;6.830;2023-03-02T02:04:54;71.93;;;26.40;;
23754;SDS011;12057;52.042;6.830;2023-03-02T02:09:55;77.57;;;24.83;;
23754;SDS011;12057;52.042;6.830;2023-03-02T02:30:35;78.53;;;26.63;;
23754;SDS011;12057;52.042;6.830;2023-03-02T02:35:37;81.28;;;28.40;;
23754;SDS011;12057;52.042;6.830;2023-03-02T02:45:40;89.40;;;28.27;;
23754;SDS011;12057;52.042;6.830;2023-03-02T02:50:41;99.45;;;30.40;;
23754;SDS011;12057;52.042;6.830;2023-03-02T02:55:42;100.88;;;31.38;;
23754;SDS011;12057;52.042;6.830;2023-03-02T03:00:44;93.65;;;30.85;;
23754;SDS011;12057;52.042;6.830;2023-03-02T03:10:45;95.70;;;29.50;;
23754;SDS011;12057;52.042;6.830;2023-03-02T03:15:46;105.00;;;32.33;;
23754;SDS011;12057;52.042;6.830;2023-03-02T03:20:47;101.15;;;30.67;;
23754;SDS011;12057;52.042;6.830;2023-03-02T03:25:48;106.75;;;31.30;;
23754;SDS011;12057;52.042;6.830;2023-03-02T03:30:48;97.55;;;30.48;;
23754;SDS011;12057;52.042;6.830;2023-03-02T03:35:49;93.18;;;32.17;;
23754;SDS011;12057;52.042;6.830;2023-03-02T03:45:51;101.40;;;30.43;;
23754;SDS011;12057;52.042;6.830;2023-03-02T03:50:51;109.00;;;34.13;;
23754;SDS011;12057;52.042;6.830;2023-03-02T04:00:53;93.83;;;28.43;;
23754;SDS011;12057;52.042;6.830;2023-03-02T04:10:54;98.30;;;28.13;;
23754;SDS011;12057;52.042;6.830;2023-03-02T04:20:56;98.07;;;28.57;;
23754;SDS011;12057;52.042;6.830;2023-03-02T04:30:58;85.40;;;26.45;;
23754;SDS011;12057;52.042;6.830;2023-03-02T04:35:58;96.68;;;28.45;;
23754;SDS011;12057;52.042;6.830;2023-03-02T04:40:59;99.53;;;26.98;;
23754;SDS011;12057;52.042;6.830;2023-03-02T04:46:00;90.55;;;28.52;;
23754;SDS011;12057;52.042;6.830;2023-03-02T04:56:02;105.30;;;28.17;;
23754;SDS011;12057;52.042;6.830;2023-03-02T05:06:03;83.83;;;24.90;;
23754;SDS011;12057;52.042;6.830;2023-03-02T05:11:05;91.47;;;27.73;;
23754;SDS011;12057;52.042;6.830;2023-03-02T05:16:06;82.35;;;25.25;;
23754;SDS011;12057;52.042;6.830;2023-03-02T05:21:07;96.78;;;26.67;;
23754;SDS011;12057;52.042;6.830;2023-03-02T05:26:09;79.00;;;23.20;;
23754;SDS011;12057;52.042;6.830;2023-03-02T05:31:23;85.75;;;27.20;;
23754;SDS011;12057;52.042;6.830;2023-03-02T05:36:30;92.20;;;24.30;;
23754;SDS011;12057;52.042;6.830;2023-03-02T05:41:32;85.10;;;24.88;;
23754;SDS011;12057;52.042;6.830;2023-03-02T05:46:33;93.25;;;25.17;;
23754;SDS011;12057;52.042;6.830;2023-03-02T05:56:34;86.30;;;25.93;;
23754;SDS011;12057;52.042;6.830;2023-03-02T06:01:35;93.32;;;28.02;;
23754;SDS011;12057;52.042;6.830;2023-03-02T06:06:37;88.72;;;26.23;;
23754;SDS011;12057;52.042;6.830;2023-03-02T06:16:39;94.23;;;25.57;;
23754;SDS011;12057;52.042;6.830;2023-03-02T06:21:40;87.68;;;26.08;;
23754;SDS011;12057;52.042;6.830;2023-03-02T06:31:42;83.47;;;26.25;;
23754;SDS011;12057;52.042;6.830;2023-03-02T06:36:43;98.85;;;28.67;;
23754;SDS011;12057;52.042;6.830;2023-03-02T06:46:45;88.20;;;26.00;;
23754;SDS011;12057;52.042;6.830;2023-03-02T06:51:46;92.70;;;27.83;;
23754;SDS011;12057;52.042;6.830;2023-03-02T06:56:48;96.15;;;30.05;;
23754;SDS011;12057;52.042;6.830;2023-03-02T07:06:50;96.97;;;28.17;;
23754;SDS011;12057;52.042;6.830;2023-03-02T07:16:52;98.15;;;26.00;;
23754;SDS011;12057;52.042;6.830;2023-03-02T07:21:59;89.78;;;26.20;;
23754;SDS011;12057;52.042;6.830;2023-03-02T07:27:00;79.57;;;27.15;;
23754;SDS011;12057;52.042;6.830;2023-03-02T07:32:01;81.68;;;27.52;;
23754;SDS011;12057;52.042;6.830;2023-03-02T07:42:03;90.00;;;25.80;;
23754;SDS011;12057;52.042;6.830;2023-03-02T07:47:06;91.70;;;26.25;;
23754;SDS011;12057;52.042;6.830;2023-03-02T07:57:07;93.43;;;25.87;;
23754;SDS011;12057;52.042;6.830;2023-03-02T08:02:11;77.72;;;24.45;;
23754;SDS011;12057;52.042;6.830;2023-03-02T08:07:13;78.15;;;24.00;;
23754;SDS011;12057;52.042;6.830;2023-03-02T08:12:14;102.80;;;27.83;;
23754;SDS011;12057;52.042;6.830;2023-03-02T08:17:15;102.45;;;27.63;;
23754;SDS011;12057;52.042;6.830;2023-03-02T08:22:16;93.72;;;27.63;;
23754;SDS011;12057;52.042;6.830;2023-03-02T08:27:16;87.78;;;26.85;;
23754;SDS011;12057;52.042;6.830;2023-03-02T08:32:20;83.35;;;27.45;;
23754;SDS011;12057;52.042;6.830;2023-03-02T08:37:21;84.75;;;26.85;;
23754;SDS011;12057;52.042;6.830;2023-03-02T08:42:22;81.68;;;26.98;;
23754;SDS011;12057;52.042;6.830;2023-03-02T08:47:26;67.90;;;24.42;;
23754;SDS011;12057;52.042;6.830;2023-03-02T08:52:27;75.03;;;24.42;;
23754;SDS011;12057;52.042;6.830;2023-03-02T08:57:28;71.00;;;24.80;;
23754;SDS011;12057;52.042;6.830;2023-03-02T09:02:29;68.22;;;24.00;;
23754;SDS011;12057;52.042;6.830;2023-03-02T09:07:29;69.18;;;24.33;;
23754;SDS011;12057;52.042;6.830;2023-03-02T09:12:30;69.78;;;22.90;;
23754;SDS011;12057;52.042;6.830;2023-03-02T09:17:31;59.53;;;22.57;;
23754;SDS011;12057;52.042;6.830;2023-03-02T09:22:32;59.47;;;20.37;;
23754;SDS011;12057;52.042;6.830;2023-03-02T09:27:34;54.42;;;21.20;;
23754;SDS011;12057;52.042;6.830;2023-03-02T09:32:35;53.03;;;19.57;;
23754;SDS011;12057;52.042;6.830;2023-03-02T09:37:36;47.00;;;18.63;;
23754;SDS011;12057;52.042;6.830;2023-03-02T09:47:59;51.38;;;19.85;;
23754;SDS011;12057;52.042;6.830;2023-03-02T09:58:36;45.67;;;18.58;;
23754;SDS011;12057;52.042;6.830;2023-03-02T10:03:49;55.53;;;19.50;;
23754;SDS011;12057;52.042;6.830;2023-03-02T10:08:52;43.03;;;18.02;;
23754;SDS011;12057;52.042;6.830;2023-03-02T10:14:00;41.80;;;16.67;;
23754;SDS011;12057;52.042;6.830;2023-03-02T10:19:07;38.80;;;16.30;;
23754;SDS011;12057;52.042;6.830;2023-03-02T10:29:35;40.53;;;15.13;;
23754;SDS011;12057;52.042;6.830;2023-03-02T10:34:38;39.78;;;15.90;;
23754;SDS011;12057;52.042;6.830;2023-03-02T10:39:39;38.95;;;16.10;;
23754;SDS011;12057;52.042;6.830;2023-03-02T10:44:41;51.23;;;19.93;;
23754;SDS011;12057;52.042;6.830;2023-03-02T10:49:54;41.08;;;16.60;;
23754;SDS011;12057;52.042;6.830;2023-03-02T10:55:00;38.85;;;15.45;;
23754;SDS011;12057;52.042;6.830;2023-03-02T11:10:25;35.50;;;14.93;;
23754;SDS011;12057;52.042;6.830;2023-03-02T11:15:49;42.17;;;16.67;;
23754;SDS011;12057;52.042;6.830;2023-03-02T11:20:56;34.22;;;15.38;;
23754;SDS011;12057;52.042;6.830;2023-03-02T11:26:04;33.95;;;13.23;;
23754;SDS011;12057;52.042;6.830;2023-03-02T11:42:14;34.00;;;13.90;;
23754;SDS011;12057;52.042;6.830;2023-03-02T11:52:21;28.03;;;12.13;;
23754;SDS011;12057;52.042;6.830;2023-03-02T11:57:30;31.40;;;13.20;;
23754;SDS011;12057;52.042;6.830;2023-03-02T12:02:34;31.58;;;13.27;;
23754;SDS011;12057;52.042;6.830;2023-03-02T12:07:35;31.83;;;13.43;;
23754;SDS011;12057;52.042;6.830;2023-03-02T12:17:47;27.23;;;11.93;;
23754;SDS011;12057;52.042;6.830;2023-03-02T12:22:48;24.90;;;12.50;;
23754;SDS011;12057;52.042;6.830;2023-03-02T12:27:50;27.07;;;12.80;;
23754;SDS011;12057;52.042;6.830;2023-03-02T12:33:15;32.17;;;12.05;;
23754;SDS011;12057;52.042;6.830;2023-03-02T12:54:05;25.33;;;11.07;;
23754;SDS011;12057;52.042;6.830;2023-03-02T12:59:25;32.35;;;12.73;;
23754;SDS011;12057;52.042;6.830;2023-03-02T13:04:27;22.55;;;10.60;;
23754;SDS011;12057;52.042;6.830;2023-03-02T13:09:28;26.83;;;11.87;;
23754;SDS011;12057;52.042;6.830;2023-03-02T13:14:29;24.57;;;10.83;;
23754;SDS011;12057;52.042;6.830;2023-03-02T13:19:30;24.90;;;11.07;;
23754;SDS011;12057;52.042;6.830;2023-03-02T13:24:43;27.27;;;10.55;;
23754;SDS011;12057;52.042;6.830;2023-03-02T13:29:48;21.13;;;9.10;;
23754;SDS011;12057;52.042;6.830;2023-03-02T13:34:54;19.52;;;9.65;;
23754;SDS011;12057;52.042;6.830;2023-03-02T13:39:59;22.20;;;9.85;;
23754;SDS011;12057;52.042;6.830;2023-03-02T13:45:21;18.42;;;9.10;;
23754;SDS011;12057;52.042;6.830;2023-03-02T13:50:24;23.65;;;9.93;;
23754;SDS011;12057;52.042;6.830;2023-03-02T13:55:30;21.48;;;10.15;;
23754;SDS011;12057;52.042;6.830;2023-03-02T14:00:33;18.10;;;9.38;;
23754;SDS011;12057;52.042;6.830;2023-03-02T14:05:34;22.45;;;10.07;;
23754;SDS011;12057;52.042;6.830;2023-03-02T14:10:35;21.97;;;8.93;;
23754;SDS011;12057;52.042;6.830;2023-03-02T14:15:41;21.73;;;9.65;;
23754;SDS011;12057;52.042;6.830;2023-03-02T14:20:46;25.55;;;8.73;;
23754;SDS011;12057;52.042;6.830;2023-03-02T14:25:47;27.37;;;9.77;;
23754;SDS011;12057;52.042;6.830;2023-03-02T14:30:51;19.05;;;8.43;;
23754;SDS011;12057;52.042;6.830;2023-03-02T14:35:54;22.33;;;9.63;;
23754;SDS011;12057;52.042;6.830;2023-03-02T14:40:57;24.42;;;8.52;;
23754;SDS011;12057;52.042;6.830;2023-03-02T14:46:01;19.03;;;8.50;;
23754;SDS011;12057;52.042;6.830;2023-03-02T14:51:02;18.70;;;8.43;;
23754;SDS011;12057;52.042;6.830;2023-03-02T14:56:03;16.95;;;8.20;;
23754;SDS011;12057;52.042;6.830;2023-03-02T15:01:07;15.60;;;7.90;;
23754;SDS011;12057;52.042;6.830;2023-03-02T15:11:27;19.30;;;7.68;;
23754;SDS011;12057;52.042;6.830;2023-03-02T15:16:28;16.73;;;8.15;;
23754;SDS011;12057;52.042;6.830;2023-03-02T15:21:29;12.33;;;6.50;;
23754;SDS011;12057;52.042;6.830;2023-03-02T15:26:30;17.50;;;7.57;;
23754;SDS011;12057;52.042;6.830;2023-03-02T15:31:31;17.30;;;6.47;;
23754;SDS011;12057;52.042;6.830;2023-03-02T15:36:32;12.90;;;6.95;;
23754;SDS011;12057;52.042;6.830;2023-03-02T15:41:33;19.77;;;8.37;;
23754;SDS011;12057;52.042;6.830;2023-03-02T15:46:33;21.60;;;7.43;;
23754;SDS011;12057;52.042;6.830;2023-03-02T15:51:34;20.07;;;7.90;;
23754;SDS011;12057;52.042;6.830;2023-03-02T15:56:35;19.20;;;8.53;;
23754;SDS011;12057;52.042;6.830;2023-03-02T16:01:36;24.73;;;9.63;;
23754;SDS011;12057;52.042;6.830;2023-03-02T16:06:36;19.53;;;9.13;;
23754;SDS011;12057;52.042;6.830;2023-03-02T16:11:37;25.10;;;9.10;;
23754;SDS011;12057;52.042;6.830;2023-03-02T16:16:38;21.87;;;8.67;;
23754;SDS011;12057;52.042;6.830;2023-03-02T16:21:39;21.70;;;9.00;;
23754;SDS011;12057;52.042;6.830;2023-03-02T16:26:40;29.83;;;12.77;;
23754;SDS011;12057;52.042;6.830;2023-03-02T16:31:43;35.97;;;13.23;;
23754;SDS011;12057;52.042;6.830;2023-03-02T16:36:45;49.78;;;19.10;;
23754;SDS011;12057;52.042;6.830;2023-03-02T16:41:46;59.13;;;22.37;;
23754;SDS011;12057;52.042;6.830;2023-03-02T16:46:47;49.53;;;19.57;;
23754;SDS011;12057;52.042;6.830;2023-03-02T16:51:48;34.97;;;15.30;;
23754;SDS011;12057;52.042;6.830;2023-03-02T16:56:48;40.77;;;14.33;;
23754;SDS011;12057;52.042;6.830;2023-03-02T17:01:49;35.13;;;13.27;;
23754;SDS011;12057;52.042;6.830;2023-03-02T17:06:50;40.03;;;14.80;;
23754;SDS011;12057;52.042;6.830;2023-03-02T17:11:51;40.10;;;14.20;;
23754;SDS011;12057;52.042;6.830;2023-03-02T17:16:52;40.23;;;15.90;;
23754;SDS011;12057;52.042;6.830;2023-03-02T17:21:59;42.00;;;16.45;;
23754;SDS011;12057;52.042;6.830;2023-03-02T17:27:01;41.20;;;16.25;;
23754;SDS011;12057;52.042;6.830;2023-03-02T17:32:02;43.00;;;16.47;;
23754;SDS011;12057;52.042;6.830;2023-03-02T17:37:03;54.95;;;17.80;;
23754;SDS011;12057;52.042;6.830;2023-03-02T17:42:04;57.43;;;20.43;;
23754;SDS011;12057;52.042;6.830;2023-03-02T17:47:05;66.57;;;23.35;;
23754;SDS011;12057;52.042;6.830;2023-03-02T17:52:07;66.18;;;24.25;;
23754;SDS011;12057;52.042;6.830;2023-03-02T17:57:08;66.87;;;23.70;;
23754;SDS011;12057;52.042;6.830;2023-03-02T18:02:09;61.85;;;22.30;;
23754;SDS011;12057;52.042;6.830;2023-03-02T18:07:10;65.90;;;25.03;;
23754;SDS011;12057;52.042;6.830;2023-03-02T18:12:12;76.45;;;24.95;;
23754;SDS011;12057;52.042;6.830;2023-03-02T18:17:12;84.10;;;24.60;;
23754;SDS011;12057;52.042;6.830;2023-03-02T18:22:14;78.80;;;27.20;;
23754;SDS011;12057;52.042;6.830;2023-03-02T18:27:14;73.80;;;27.70;;
23754;SDS011;12057;52.042;6.830;2023-03-02T18:32:15;76.63;;;25.58;;
23754;SDS011;12057;52.042;6.830;2023-03-02T18:37:16;94.80;;;30.27;;
23754;SDS011;12057;52.042;6.830;2023-03-02T18:42:17;79.90;;;25.95;;
23754;SDS011;12057;52.042;6.830;2023-03-02T18:47:18;75.23;;;25.53;;
23754;SDS011;12057;52.042;6.830;2023-03-02T18:52:19;81.63;;;26.67;;
23754;SDS011;12057;52.042;6.830;2023-03-02T18:57:19;86.60;;;27.58;;
23754;SDS011;12057;52.042;6.830;2023-03-02T19:02:21;87.65;;;27.30;;
23754;SDS011;12057;52.042;6.830;2023-03-02T19:07:22;79.67;;;25.80;;
23754;SDS011;12057;52.042;6.830;2023-03-02T19:12:22;83.57;;;26.38;;
23754;SDS011;12057;52.042;6.830;2023-03-02T19:17:23;78.22;;;25.05;;
23754;SDS011;12057;52.042;6.830;2023-03-02T19:22:24;72.05;;;25.00;;
23754;SDS011;12057;52.042;6.830;2023-03-02T19:27:25;88.07;;;27.57;;
23754;SDS011;12057;52.042;6.830;2023-03-02T19:32:26;85.63;;;27.40;;
23754;SDS011;12057;52.042;6.830;2023-03-02T19:37:27;95.90;;;29.60;;
23754;SDS011;12057;52.042;6.830;2023-03-02T19:42:27;91.78;;;28.15;;
23754;SDS011;12057;52.042;6.830;2023-03-02T19:47:32;93.63;;;26.80;;
23754;SDS011;12057;52.042;6.830;2023-03-02T19:52:33;81.23;;;26.57;;
23754;SDS011;12057;52.042;6.830;2023-03-02T19:57:34;85.25;;;26.83;;
23754;SDS011;12057;52.042;6.830;2023-03-02T20:02:36;84.57;;;27.48;;
23754;SDS011;12057;52.042;6.830;2023-03-02T20:07:39;78.60;;;23.75;;
23754;SDS011;12057;52.042;6.830;2023-03-02T20:12:40;83.57;;;26.42;;
23754;SDS011;12057;52.042;6.830;2023-03-02T20:17:41;83.90;;;26.15;;
23754;SDS011;12057;52.042;6.830;2023-03-02T20:22:42;94.13;;;27.60;;
23754;SDS011;12057;52.042;6.830;2023-03-02T20:27:45;91.50;;;28.73;;
23754;SDS011;12057;52.042;6.830;2023-03-02T20:32:50;87.40;;;26.60;;
23754;SDS011;12057;52.042;6.830;2023-03-02T20:37:52;82.90;;;25.75;;
23754;SDS011;12057;52.042;6.830;2023-03-02T20:42:55;94.38;;;27.80;;
23754;SDS011;12057;52.042;6.830;2023-03-02T20:47:59;89.93;;;25.52;;
23754;SDS011;12057;52.042;6.830;2023-03-02T20:53:00;96.00;;;27.17;;
23754;SDS011;12057;52.042;6.830;2023-03-02T21:03:04;73.25;;;23.48;;
23754;SDS011;12057;52.042;6.830;2023-03-02T21:08:10;91.93;;;25.92;;
23754;SDS011;12057;52.042;6.830;2023-03-02T21:13:13;90.13;;;24.42;;
23754;SDS011;12057;52.042;6.830;2023-03-02T21:18:14;103.68;;;25.63;;
23754;SDS011;12057;52.042;6.830;2023-03-02T21:23:15;98.65;;;28.65;;
23754;SDS011;12057;52.042;6.830;2023-03-02T21:28:16;105.72;;;27.95;;
23754;SDS011;12057;52.042;6.830;2023-03-02T21:33:16;105.95;;;27.48;;
23754;SDS011;12057;52.042;6.830;2023-03-02T21:38:17;120.28;;;30.00;;
23754;SDS011;12057;52.042;6.830;2023-03-02T21:43:18;113.50;;;27.92;;
23754;SDS011;12057;52.042;6.830;2023-03-02T21:48:19;105.95;;;27.75;;
23754;SDS011;12057;52.042;6.830;2023-03-02T21:53:20;111.70;;;27.98;;
23754;SDS011;12057;52.042;6.830;2023-03-02T21:58:21;95.93;;;25.45;;
23754;SDS011;12057;52.042;6.830;2023-03-02T22:03:21;107.10;;;26.42;;
23754;SDS011;12057;52.042;6.830;2023-03-02T22:08:22;125.50;;;27.25;;
23754;SDS011;12057;52.042;6.830;2023-03-02T22:13:29;112.90;;;27.75;;
23754;SDS011;12057;52.042;6.830;2023-03-02T22:18:31;122.72;;;29.23;;
23754;SDS011;12057;52.042;6.830;2023-03-02T22:23:32;104.00;;;27.23;;
23754;SDS011;12057;52.042;6.830;2023-03-02T22:28:33;138.38;;;31.52;;
23754;SDS011;12057;52.042;6.830;2023-03-02T22:33:39;125.32;;;29.35;;
23754;SDS011;12057;52.042;6.830;2023-03-02T22:38:40;127.80;;;29.67;;
23754;SDS011;12057;52.042;6.830;2023-03-02T22:43:41;131.52;;;30.02;;
23754;SDS011;12057;52.042;6.830;2023-03-02T22:48:43;130.18;;;32.92;;
23754;SDS011;12057;52.042;6.830;2023-03-02T22:53:58;137.70;;;30.58;;
23754;SDS011;12057;52.042;6.830;2023-03-02T22:59:01;128.10;;;30.08;;
23754;SDS011;12057;52.042;6.830;2023-03-02T23:04:20;121.28;;;30.77;;
23754;SDS011;12057;52.042;6.830;2023-03-02T23:09:27;134.63;;;30.10;;
23754;SDS011;12057;52.042;6.830;2023-03-02T23:19:50;119.00;;;28.05;;
23754;SDS011;12057;52.042;6.830;2023-03-02T23:24:51;111.50;;;26.50;;
23754;SDS011;12057;52.042;6.830;2023-03-02T23:29:52;111.05;;;26.48;;
23754;SDS011;12057;52.042;6.830;2023-03-02T23:34:53;123.75;;;27.83;;
23754;SDS011;12057;52.042;6.830;2023-03-02T23:39:54;130.35;;;29.50;;
23754;SDS011;12057;52.042;6.830;2023-03-02T23:44:55;108.35;;;27.27;;
23754;SDS011;12057;52.042;6.830;2023-03-02T23:49:55;106.60;;;27.30;;
23754;SDS011;12057;52.042;6.830;2023-03-02T23:54:56;112.80;;;28.92;;
23754;SDS011;12057;52.042;6.830;2023-03-02T23:59:57;102.28;;;27.60;;
